Time;durP1;ratioP1;P1;durP2;ratioP2;P2;SDS_P1;SDS_P2;PMS_P1;PMS_P2;Temp;Humidity;BMP_temperature;BMP_pressure;BME280_temperature;BME280_humidity;BME280_pressure;Samples;Min_cycle;Max_cycle;Signal;HPM_P1;HPM_P2
2021/01/31 05:54:38;;;;;;;17.88;4.93;;;13.80;99.90;;;;;;5086977;27;20416;-61
2021/01/31 05:57:23;;;;;;;31.48;6.25;;;13.90;99.90;;;;;;5078658;28;20148;-63
2021/01/31 05:59:50;;;;;;;27.70;5.45;;;13.90;99.90;;;;;;5088173;28;20048;-56
2021/01/31 06:02:27;;;;;;;19.08;4.18;;;13.90;99.90;;;;;;5089996;28;20122;-62
2021/01/31 06:05:13;;;;;;;19.25;6.18;;;13.90;99.90;;;;;;5087833;28;20055;-60
2021/01/31 06:07:41;;;;;;;;;;;13.90;99.90;;;;;;5089413;28;20052;-63
2021/01/31 06:10:19;;;;;;;22.23;4.97;;;13.90;99.90;;;;;;5089822;28;19951;-62
2021/01/31 06:12:50;;;;;;;25.42;3.13;;;13.90;99.90;;;;;;5089621;28;20435;-63
2021/01/31 06:15:35;;;;;;;34.67;5.22;;;13.90;99.90;;;;;;5087810;28;20051;-63
2021/01/31 06:18:14;;;;;;;29.23;5.18;;;13.90;99.90;;;;;;5088285;28;20048;-62
2021/01/31 06:20:44;;;;;;;22.17;3.97;;;14.00;99.90;;;;;;5089587;28;20080;-61
2021/01/31 06:23:38;;;;;;;33.72;5.70;;;14.00;99.90;;;;;;5082055;28;20094;-63
2021/01/31 06:26:38;;;;;;;20.42;5.03;;;14.00;99.90;;;;;;5069311;28;20132;-60
2021/01/31 06:29:40;;;;;;;28.65;5.25;;;14.00;99.90;;;;;;5071914;28;20053;-63
2021/01/31 06:32:20;;;;;;;23.58;4.55;;;14.00;99.90;;;;;;5084948;28;20135;-62
2021/01/31 06:34:52;;;;;;;22.45;4.72;;;14.00;99.90;;;;;;5087240;28;20394;-62
2021/01/31 06:37:47;;;;;;;23.70;7.07;;;14.00;99.90;;;;;;5088601;28;20093;-62
2021/01/31 06:40:40;;;;;;;29.38;5.13;;;14.00;99.90;;;;;;5082937;28;20127;-62
2021/01/31 06:43:10;;;;;;;31.02;6.97;;;14.00;99.90;;;;;;5089029;28;20512;-62
2021/01/31 06:46:03;;;;;;;28.38;6.60;;;14.10;99.90;;;;;;5080325;28;20117;-61
2021/01/31 06:48:45;;;;;;;39.90;7.65;;;14.10;99.90;;;;;;5085521;28;20052;-62
2021/01/31 06:51:20;;;;;;;32.55;4.03;;;14.10;99.90;;;;;;5076927;28;20047;-63
2021/01/31 06:54:25;;;;;;;32.13;5.38;;;14.10;99.90;;;;;;5073552;28;20041;-62
2021/01/31 06:57:17;;;;;;;29.63;5.88;;;14.20;99.90;;;;;;5072659;28;20057;-63
2021/01/31 07:00:14;;;;;;;23.55;4.78;;;14.20;99.90;;;;;;5055303;28;20052;-62
2021/01/31 07:02:59;;;;;;;27.75;7.30;;;14.20;99.90;;;;;;5055627;28;20048;-61
2021/01/31 07:05:33;;;;;;;29.47;5.87;;;14.20;99.90;;;;;;5054119;28;20049;-63
2021/01/31 07:08:03;;;;;;;20.15;4.72;;;14.20;99.90;;;;;;5069663;28;20774;-62
2021/01/31 07:10:45;;;;;;;21.90;6.03;;;14.20;99.90;;;;;;5055209;28;20493;-62
2021/01/31 07:13:36;;;;;;;15.15;3.20;;;14.30;99.90;;;;;;5054723;28;20056;-63
2021/01/31 07:16:19;;;;;;;18.85;5.03;;;14.30;99.90;;;;;;5054336;28;20498;-62
2021/01/31 07:18:53;;;;;;;24.55;6.45;;;14.30;99.90;;;;;;5053897;28;20088;-61
2021/01/31 07:21:36;;;;;;;16.70;4.32;;;14.30;99.90;;;;;;5054959;28;20051;-61
2021/01/31 07:24:09;;;;;;;28.45;5.07;;;14.30;99.90;;;;;;5054783;28;20052;-61
2021/01/31 07:26:53;;;;;;;25.77;4.97;;;14.30;99.90;;;;;;5054859;28;20049;-62
2021/01/31 07:29:59;;;;;;;22.58;7.18;;;14.30;99.90;;;;;;5071376;28;20416;-56
2021/01/31 07:32:44;;;;;;;15.02;5.30;;;14.30;99.90;;;;;;5073378;28;20098;-61
2021/01/31 07:35:14;;;;;;;21.10;6.70;;;14.40;99.90;;;;;;5074122;28;20044;-61
2021/01/31 07:37:45;;;;;;;24.67;7.63;;;14.40;99.90;;;;;;5073154;28;20504;-62
2021/01/31 07:40:23;;;;;;;26.65;9.32;;;14.40;99.90;;;;;;5074471;28;20053;-61
2021/01/31 07:42:55;;;;;;;26.33;7.43;;;14.40;99.90;;;;;;5073227;28;20529;-61
2021/01/31 07:45:25;;;;;;;28.50;6.10;;;14.50;99.90;;;;;;5074228;28;20044;-58
2021/01/31 07:48:30;;;;;;;26.67;9.27;;;14.50;99.90;;;;;;5074891;28;20052;-61
2021/01/31 07:51:00;;;;;;;31.17;6.95;;;14.50;99.90;;;;;;5074402;28;20049;-63
2021/01/31 07:53:35;;;;;;;27.98;5.65;;;14.60;99.90;;;;;;5072354;28;20052;-62
2021/01/31 07:56:24;;;;;;;18.63;5.00;;;14.60;99.90;;;;;;5066505;28;20127;-61
2021/01/31 07:58:53;;;;;;;17.00;3.17;;;14.80;99.90;;;;;;5061527;28;20449;-58
2021/01/31 08:01:39;;;;;;;21.33;5.07;;;14.80;99.90;;;;;;5066670;28;20048;-56
2021/01/31 08:04:15;;;;;;;;;;;14.80;99.90;;;;;;5074068;28;20052;-62
2021/01/31 08:06:50;;;;;;;18.70;5.60;;;14.80;99.90;;;;;;5068812;28;19924;-61
2021/01/31 08:09:27;;;;;;;24.88;5.45;;;14.70;99.90;;;;;;5067934;28;20051;-62
2021/01/31 08:12:14;;;;;;;13.00;3.53;;;14.80;99.90;;;;;;5063776;28;20051;-57
2021/01/31 08:15:32;;;;;;;17.00;4.88;;;14.80;99.90;;;;;;5064360;28;20118;-58
2021/01/31 08:17:59;;;;;;;;;;;14.90;99.90;;;;;;5062675;28;20127;-53
2021/01/31 08:20:29;;;;;;;12.85;4.63;;;15.00;99.90;;;;;;5063891;28;20011;-61
2021/01/31 08:23:00;;;;;;;41.78;21.35;;;15.10;99.90;;;;;;5063721;28;20056;-57
2021/01/31 08:25:54;;;;;;;15.82;5.35;;;15.20;99.90;;;;;;5062358;28;20044;-61
2021/01/31 08:28:37;;;;;;;18.33;5.43;;;15.20;99.90;;;;;;5059083;28;20221;-62
2021/01/31 08:31:15;;;;;;;21.05;5.57;;;15.10;99.90;;;;;;5064340;28;20052;-63
2021/01/31 08:33:44;;;;;;;19.05;3.45;;;15.20;99.90;;;;;;5063391;28;20077;-62
2021/01/31 08:36:20;;;;;;;19.23;5.90;;;15.10;99.90;;;;;;5062435;28;20045;-62
2021/01/31 08:38:55;;;;;;;15.88;3.60;;;15.10;99.90;;;;;;5062254;28;20045;-61
2021/01/31 08:41:30;;;;;;;23.17;7.10;;;15.10;99.90;;;;;;5071431;28;20170;-61
2021/01/31 08:44:19;;;;;;;26.85;4.90;;;15.10;99.90;;;;;;5072680;28;20052;-62
2021/01/31 08:46:57;;;;;;;19.05;5.32;;;15.00;99.90;;;;;;5071321;28;20051;-62
2021/01/31 08:49:25;;;;;;;23.90;6.65;;;14.90;99.90;;;;;;5073385;28;20068;-62
2021/01/31 08:52:05;;;;;;;42.67;14.50;;;14.90;99.90;;;;;;5073164;28;20052;-63
2021/01/31 08:54:33;;;;;;;25.88;9.13;;;14.80;99.90;;;;;;5071760;28;20058;-63
2021/01/31 08:57:04;;;;;;;27.83;13.88;;;14.90;99.90;;;;;;5073275;28;20048;-63
2021/01/31 08:59:46;;;;;;;23.55;9.10;;;14.90;99.90;;;;;;5072268;28;20056;-63
2021/01/31 09:02:13;;;;;;;22.95;6.85;;;14.90;99.90;;;;;;5066258;28;20060;-61
2021/01/31 09:04:59;;;;;;;23.45;8.50;;;14.90;99.90;;;;;;5052657;28;20059;-63
2021/01/31 09:07:44;;;;;;;22.10;8.18;;;14.80;99.90;;;;;;5051866;28;20513;-63
2021/01/31 09:10:30;;;;;;;23.48;8.85;;;14.80;99.90;;;;;;5061766;28;20052;-63
2021/01/31 09:13:25;;;;;;;33.38;10.43;;;14.70;99.90;;;;;;5072266;28;20572;-63
2021/01/31 09:15:54;;;;;;;39.42;15.70;;;14.70;99.90;;;;;;5072993;28;20050;-63
2021/01/31 09:18:23;;;;;;;26.80;6.93;;;14.60;99.90;;;;;;5072745;28;20048;-62
2021/01/31 09:20:51;;;;;;;29.27;8.80;;;14.60;99.90;;;;;;5072928;28;20121;-63
2021/01/31 09:23:37;;;;;;;49.50;20.15;;;14.60;99.90;;;;;;5061386;28;20037;-63
2021/01/31 09:26:05;;;;;;;19.23;7.70;;;14.70;99.90;;;;;;5052707;28;20045;-63
2021/01/31 09:28:32;;;;;;;24.33;7.00;;;14.70;99.90;;;;;;5052792;28;20049;-64
2021/01/31 09:31:02;;;;;;;42.72;7.95;;;14.70;99.90;;;;;;5051633;28;20045;-63
2021/01/31 09:33:38;;;;;;;23.88;7.40;;;14.80;99.90;;;;;;5052661;28;20057;-63
2021/01/31 09:36:22;;;;;;;28.92;11.70;;;14.80;99.90;;;;;;5052686;28;20053;-63
2021/01/31 09:38:51;;;;;;;23.50;12.20;;;14.80;99.90;;;;;;5053004;28;20052;-62
2021/01/31 09:41:22;;;;;;;30.08;9.45;;;14.90;99.90;;;;;;5072731;28;20454;-63
2021/01/31 09:43:59;;;;;;;31.13;11.07;;;14.90;99.90;;;;;;5071796;28;20036;-64
2021/01/31 09:46:27;;;;;;;26.02;9.63;;;14.90;99.90;;;;;;5071256;28;20122;-63
2021/01/31 09:49:15;;;;;;;23.27;9.60;;;14.90;99.90;;;;;;5072716;28;20052;-63
2021/01/31 09:51:46;;;;;;;22.15;11.10;;;15.00;99.90;;;;;;5072909;28;20055;-63
2021/01/31 09:54:19;;;;;;;22.40;7.85;;;15.00;99.90;;;;;;5071008;28;20055;-63
2021/01/31 09:56:56;;;;;;;21.05;6.95;;;15.00;99.90;;;;;;5072875;28;20053;-63
2021/01/31 09:59:29;;;;;;;25.23;8.75;;;15.10;99.90;;;;;;5072848;28;20123;-63
2021/01/31 10:02:05;;;;;;;37.60;8.20;;;15.20;99.90;;;;;;5064053;28;20041;-63
2021/01/31 10:04:34;;;;;;;23.23;6.45;;;15.30;99.90;;;;;;5062090;28;20127;-63
2021/01/31 10:07:08;;;;;;;31.35;12.30;;;15.30;99.90;;;;;;5057967;28;20056;-62
2021/01/31 10:09:50;;;;;;;28.52;9.80;;;15.30;99.90;;;;;;5058615;28;20353;-63
2021/01/31 10:12:25;;;;;;;21.85;9.75;;;15.30;99.90;;;;;;5067574;28;20090;-56
2021/01/31 10:15:04;;;;;;;32.80;13.15;;;15.20;99.90;;;;;;5053971;28;20049;-59
2021/01/31 10:17:40;;;;;;;20.05;8.48;;;15.20;99.90;;;;;;5057549;28;20041;-60
2021/01/31 10:20:39;;;;;;;26.13;7.72;;;15.20;99.90;;;;;;5051414;28;20140;-61
2021/01/31 10:23:14;;;;;;;27.50;9.60;;;15.20;99.90;;;;;;5051602;28;20132;-57
2021/01/31 10:25:56;;;;;;;23.70;6.87;;;15.30;99.90;;;;;;5052152;28;20072;-63
2021/01/31 10:28:35;;;;;;;35.33;10.43;;;15.30;99.90;;;;;;5058038;28;20048;-63
2021/01/31 10:31:03;;;;;;;30.40;9.50;;;15.30;99.90;;;;;;5064965;28;20391;-60
2021/01/31 10:33:45;;;;;;;23.23;7.18;;;15.20;99.90;;;;;;5066373;28;20067;-61
2021/01/31 10:36:24;;;;;;;20.60;5.55;;;15.10;99.90;;;;;;5071668;28;20106;-62
2021/01/31 10:38:53;;;;;;;25.70;9.15;;;15.10;99.90;;;;;;5075707;28;20048;-63
2021/01/31 10:41:22;;;;;;;21.75;8.68;;;15.10;99.90;;;;;;5074775;28;20053;-63
2021/01/31 10:44:08;;;;;;;29.95;11.60;;;15.00;99.90;;;;;;5075299;28;20094;-63
2021/01/31 10:46:38;;;;;;;21.15;8.30;;;15.00;99.90;;;;;;5065760;28;20637;-63
2021/01/31 10:49:06;;;;;;;28.95;9.20;;;14.90;99.90;;;;;;5072164;28;20049;-63
2021/01/31 10:51:47;;;;;;;33.53;11.65;;;14.90;99.90;;;;;;5055627;28;20225;-63
2021/01/31 10:54:16;;;;;;;27.33;9.32;;;14.90;99.90;;;;;;5055027;28;20060;-63
2021/01/31 10:56:44;;;;;;;32.08;12.88;;;14.90;99.90;;;;;;5055552;28;20524;-64
2021/01/31 10:59:11;;;;;;;28.80;8.30;;;15.00;99.90;;;;;;5058833;28;20056;-61
2021/01/31 11:01:47;;;;;;;16.30;7.03;;;15.10;99.90;;;;;;5070565;28;20041;-62
2021/01/31 11:04:16;;;;;;;31.10;8.13;;;15.20;99.90;;;;;;5061876;28;20064;-62
2021/01/31 11:06:44;;;;;;;23.55;9.55;;;15.30;99.90;;;;;;5071049;28;20045;-63
2021/01/31 11:09:12;;;;;;;22.02;7.03;;;15.40;99.90;;;;;;5075079;28;20560;-63
2021/01/31 11:11:40;;;;;;;40.90;18.23;;;15.40;99.90;;;;;;5075344;28;20063;-63
2021/01/31 11:14:07;;;;;;;29.27;11.68;;;15.30;99.90;;;;;;5074734;28;20131;-63
2021/01/31 11:16:36;;;;;;;30.40;10.63;;;15.30;99.90;;;;;;5074079;28;20103;-61
2021/01/31 11:19:03;;;;;;;39.63;14.90;;;15.20;99.90;;;;;;5075138;28;20052;-64
2021/01/31 11:21:33;;;;;;;29.67;12.07;;;15.20;99.90;;;;;;5073969;28;20058;-63
2021/01/31 11:24:01;;;;;;;40.08;13.07;;;15.20;99.90;;;;;;5074814;28;20512;-63
2021/01/31 11:26:28;;;;;;;28.20;12.27;;;15.10;99.90;;;;;;5075015;28;20496;-62
2021/01/31 11:28:56;;;;;;;38.85;14.27;;;15.10;99.90;;;;;;5072247;28;20041;-63
2021/01/31 11:31:24;;;;;;;28.90;12.35;;;15.10;99.90;;;;;;5067572;28;20556;-63
2021/01/31 11:33:54;;;;;;;24.55;12.35;;;15.10;99.90;;;;;;5074009;28;20052;-63
2021/01/31 11:36:23;;;;;;;38.72;13.98;;;15.10;99.90;;;;;;5073712;28;20048;-63
2021/01/31 11:38:51;;;;;;;38.95;15.98;;;15.00;99.90;;;;;;5071751;28;20045;-62
2021/01/31 11:41:19;;;;;;;42.38;13.32;;;15.10;99.90;;;;;;5073497;28;20497;-60
2021/01/31 11:43:47;;;;;;;34.45;13.95;;;15.10;99.90;;;;;;5072746;28;20044;-63
2021/01/31 11:46:15;;;;;;;35.33;13.38;;;15.10;99.90;;;;;;5074331;28;20059;-63
2021/01/31 11:48:42;;;;;;;39.50;18.00;;;15.10;99.90;;;;;;5073635;28;20040;-62
2021/01/31 11:51:10;;;;;;;29.80;17.58;;;15.10;99.90;;;;;;5071079;28;20471;-63
2021/01/31 11:53:38;;;;;;;19.27;9.20;;;15.00;99.90;;;;;;5073429;28;20131;-63
2021/01/31 11:56:06;;;;;;;23.77;12.90;;;14.70;99.90;;;;;;5073175;28;20060;-63
2021/01/31 11:58:33;;;;;;;23.25;10.45;;;14.40;99.90;;;;;;5074099;28;20076;-63
2021/01/31 12:01:00;;;;;;;17.23;9.63;;;14.30;99.90;;;;;;5074360;28;20056;-63
2021/01/31 12:03:28;;;;;;;19.92;8.95;;;14.20;99.90;;;;;;5072720;28;20049;-63
2021/01/31 12:05:56;;;;;;;20.15;10.38;;;14.00;99.90;;;;;;5073412;28;20048;-62
2021/01/31 12:08:23;;;;;;;19.40;9.40;;;14.00;99.90;;;;;;5073023;28;20119;-62
2021/01/31 12:10:51;;;;;;;20.90;11.85;;;13.90;99.90;;;;;;5074028;28;20040;-61
2021/01/31 12:13:19;;;;;;;27.63;15.05;;;13.90;99.90;;;;;;5073514;28;20040;-63
2021/01/31 12:15:46;;;;;;;35.42;17.73;;;13.90;99.90;;;;;;5073693;28;20056;-63
2021/01/31 12:18:14;;;;;;;30.38;16.73;;;14.00;99.90;;;;;;5073071;28;20071;-63
2021/01/31 12:20:41;;;;;;;36.72;25.52;;;14.10;99.90;;;;;;5069569;28;20045;-63
2021/01/31 12:23:12;;;;;;;31.15;17.30;;;14.10;99.90;;;;;;5069410;28;20070;-63
2021/01/31 12:25:40;;;;;;;61.58;31.40;;;14.20;99.90;;;;;;5071704;28;20095;-63
2021/01/31 12:28:07;;;;;;;36.95;21.73;;;14.20;99.90;;;;;;5072196;28;20083;-62
2021/01/31 12:30:36;;;;;;;27.40;15.32;;;14.30;99.90;;;;;;5072391;28;20064;-63
2021/01/31 12:33:04;;;;;;;27.75;13.23;;;14.30;99.90;;;;;;5067125;28;20055;-63
2021/01/31 12:35:32;;;;;;;14.23;8.93;;;14.30;99.90;;;;;;5057750;28;20056;-63
2021/01/31 12:38:00;;;;;;;9.15;4.65;;;14.20;99.90;;;;;;5068535;28;20044;-62
2021/01/31 12:40:29;;;;;;;8.70;5.45;;;14.20;99.90;;;;;;5067181;28;20052;-60
2021/01/31 12:42:57;;;;;;;11.88;4.20;;;14.10;99.90;;;;;;5071096;28;20052;-55
2021/01/31 12:45:24;;;;;;;11.55;5.47;;;14.00;99.90;;;;;;5057246;28;20048;-63
2021/01/31 12:47:59;;;;;;;12.52;7.72;;;13.90;99.90;;;;;;5053655;28;20053;-62
2021/01/31 12:50:29;;;;;;;13.88;9.30;;;13.90;99.90;;;;;;5053215;28;20052;-63
2021/01/31 12:52:57;;;;;;;16.52;9.88;;;13.80;99.90;;;;;;5052040;28;20092;-56
2021/01/31 12:55:25;;;;;;;17.88;13.18;;;13.90;99.90;;;;;;5053226;28;20057;-64
2021/01/31 12:57:55;;;;;;;12.75;7.05;;;14.00;99.90;;;;;;5059963;28;20059;-63
2021/01/31 13:00:23;;;;;;;21.33;10.32;;;14.10;99.90;;;;;;5072870;28;20052;-63
2021/01/31 13:02:51;;;;;;;14.27;7.60;;;14.10;99.90;;;;;;5072874;28;20057;-60
2021/01/31 13:05:22;;;;;;;24.63;10.77;;;14.10;99.90;;;;;;5073229;28;20504;-63
2021/01/31 13:07:50;;;;;;;22.73;10.88;;;14.00;99.90;;;;;;5072625;28;20521;-58
2021/01/31 13:10:17;;;;;;;26.42;17.08;;;13.90;99.90;;;;;;5071544;28;20059;-63
2021/01/31 13:12:45;;;;;;;36.72;18.95;;;13.90;99.90;;;;;;5072732;28;20040;-63
2021/01/31 13:15:13;;;;;;;19.90;13.50;;;13.90;99.90;;;;;;5072468;28;20416;-63
2021/01/31 13:17:48;;;;;;;;;;;14.00;99.90;;;;;;5072979;28;20549;-61
2021/01/31 13:20:15;;;;;;;11.30;6.93;;;14.00;99.90;;;;;;5071675;28;20335;-63
2021/01/31 13:22:43;;;;;;;15.30;8.52;;;13.90;99.90;;;;;;5072568;28;20049;-61
2021/01/31 13:25:12;;;;;;;13.50;6.28;;;14.00;99.90;;;;;;5068243;28;20559;-61
2021/01/31 13:27:40;;;;;;;27.23;15.98;;;14.10;99.90;;;;;;5071171;28;20067;-62
2021/01/31 13:30:13;;;;;;;21.90;16.08;;;14.10;99.90;;;;;;5072598;28;20471;-59
2021/01/31 13:32:40;;;;;;;17.10;9.85;;;14.00;99.90;;;;;;5072588;28;20157;-62
2021/01/31 13:35:10;;;;;;;13.10;8.60;;;14.10;99.90;;;;;;5071303;28;20048;-62
2021/01/31 13:37:39;;;;;;;14.00;9.43;;;14.20;99.90;;;;;;5072612;28;20094;-63
2021/01/31 13:40:08;;;;;;;10.15;4.70;;;14.20;99.90;;;;;;5071486;28;20109;-63
2021/01/31 13:42:36;;;;;;;11.55;4.25;;;14.20;99.90;;;;;;5072338;28;20098;-61
2021/01/31 13:45:06;;;;;;;9.45;2.92;;;14.20;99.90;;;;;;5072041;28;20489;-63
2021/01/31 13:47:36;;;;;;;9.70;2.83;;;14.00;99.90;;;;;;5072693;28;20048;-59
2021/01/31 13:50:09;;;;;;;10.60;3.15;;;14.00;99.90;;;;;;5072901;28;20071;-63
2021/01/31 13:52:37;;;;;;;9.85;4.07;;;13.90;99.90;;;;;;5072328;28;20064;-60
2021/01/31 13:55:05;;;;;;;11.32;3.70;;;13.90;99.90;;;;;;5072015;28;20047;-64
2021/01/31 13:57:32;;;;;;;13.95;5.28;;;13.90;99.90;;;;;;5071065;28;20040;-64
2021/01/31 14:00:00;;;;;;;12.68;4.00;;;13.80;99.90;;;;;;5072171;28;20061;-61
2021/01/31 14:02:27;;;;;;;11.65;4.43;;;13.90;99.90;;;;;;5052314;28;20532;-64
2021/01/31 14:04:54;;;;;;;16.33;6.35;;;13.90;99.90;;;;;;5053889;28;20049;-60
2021/01/31 14:07:22;;;;;;;20.65;11.10;;;13.90;99.90;;;;;;5054949;28;20058;-62
2021/01/31 14:09:50;;;;;;;40.50;21.38;;;13.90;99.90;;;;;;5056178;28;20509;-63
2021/01/31 14:12:17;;;;;;;36.95;22.80;;;14.00;99.90;;;;;;5071487;28;20045;-63
2021/01/31 14:14:49;;;;;;;25.77;16.40;;;14.10;99.90;;;;;;5054418;28;20049;-65
2021/01/31 14:17:20;;;;;;;20.90;11.27;;;14.20;99.90;;;;;;5072007;28;20056;-58
2021/01/31 14:19:47;;;;;;;15.20;8.68;;;14.20;99.90;;;;;;5075664;28;20052;-62
2021/01/31 14:22:15;;;;;;;13.25;6.35;;;14.30;99.90;;;;;;5075758;28;20052;-63
2021/01/31 14:24:48;;;;;;;19.60;7.93;;;14.30;99.90;;;;;;5075314;28;20047;-60
2021/01/31 14:27:18;;;;;;;11.63;6.18;;;14.40;99.90;;;;;;5075617;28;20555;-62
2021/01/31 14:29:49;;;;;;;16.15;7.35;;;14.40;99.90;;;;;;5075783;28;20123;-64
2021/01/31 14:32:16;;;;;;;12.02;6.82;;;14.30;99.90;;;;;;5075343;28;20048;-63
2021/01/31 14:34:44;;;;;;;17.05;8.07;;;14.20;99.90;;;;;;5075119;28;20060;-62
2021/01/31 14:37:12;;;;;;;16.48;6.38;;;14.10;99.90;;;;;;5074788;28;20048;-64
2021/01/31 14:39:44;;;;;;;15.55;6.05;;;14.10;99.90;;;;;;5058086;28;20131;-62
2021/01/31 14:42:12;;;;;;;14.48;7.30;;;14.00;99.90;;;;;;5075015;28;20071;-63
2021/01/31 14:44:39;;;;;;;10.88;4.88;;;14.00;99.90;;;;;;5074842;28;20052;-63
2021/01/31 14:47:07;;;;;;;12.32;7.10;;;14.00;99.90;;;;;;5074493;28;20055;-61
2021/01/31 14:49:37;;;;;;;15.45;9.30;;;14.00;99.90;;;;;;5074915;28;20057;-63
2021/01/31 14:52:05;;;;;;;16.92;8.02;;;14.00;99.90;;;;;;5073823;28;20041;-63
2021/01/31 14:54:32;;;;;;;14.35;8.90;;;14.10;99.90;;;;;;5073453;28;20062;-63
2021/01/31 14:57:00;;;;;;;16.15;10.02;;;14.20;99.90;;;;;;5075446;28;20497;-63
2021/01/31 14:59:31;;;;;;;18.02;11.02;;;14.30;99.90;;;;;;5074198;28;20048;-63
2021/01/31 15:01:58;;;;;;;17.77;12.02;;;14.30;99.90;;;;;;5086826;28;20048;-63
2021/01/31 15:04:28;;;;;;;19.10;10.93;;;14.40;99.90;;;;;;5078051;28;20135;-64
2021/01/31 15:06:56;;;;;;;29.42;14.98;;;14.40;99.90;;;;;;5073215;28;20485;-64
2021/01/31 15:09:24;;;;;;;19.48;10.93;;;14.40;99.90;;;;;;5061935;28;20128;-63
2021/01/31 15:11:59;;;;;;;19.83;9.82;;;14.40;99.90;;;;;;5055387;28;20049;-65
2021/01/31 15:14:28;;;;;;;22.10;12.05;;;14.30;99.90;;;;;;5058753;28;20139;-63
2021/01/31 15:16:55;;;;;;;17.08;10.35;;;14.20;99.90;;;;;;5064421;28;20044;-62
2021/01/31 15:19:24;;;;;;;33.92;14.85;;;14.10;99.90;;;;;;5077257;28;20135;-63
2021/01/31 15:21:54;;;;;;;18.15;9.10;;;14.10;99.90;;;;;;5081608;28;20063;-60
2021/01/31 15:24:22;;;;;;;15.60;8.55;;;14.10;99.90;;;;;;5073023;28;20040;-64
2021/01/31 15:26:50;;;;;;;17.92;8.73;;;14.10;99.90;;;;;;5057527;28;20052;-60
2021/01/31 15:29:17;;;;;;;18.83;10.20;;;14.10;99.90;;;;;;5074611;28;20412;-62
2021/01/31 15:31:45;;;;;;;19.45;13.32;;;14.10;99.90;;;;;;5074707;28;20512;-64
2021/01/31 15:34:13;;;;;;;34.40;19.83;;;14.10;99.90;;;;;;5072905;28;20052;-64
2021/01/31 15:36:40;;;;;;;60.58;36.35;;;14.10;99.90;;;;;;5073181;28;20057;-63
2021/01/31 15:39:08;;;;;;;35.92;21.00;;;14.00;99.90;;;;;;5073407;28;20412;-62
2021/01/31 15:41:36;;;;;;;31.80;20.73;;;14.00;99.90;;;;;;5080588;28;20051;-59
2021/01/31 15:44:06;;;;;;;28.75;13.32;;;13.90;99.90;;;;;;5074880;28;20374;-63
2021/01/31 15:46:39;;;;;;;27.02;18.85;;;13.90;99.90;;;;;;5074301;28;20489;-64
2021/01/31 15:49:09;;;;;;;38.53;25.38;;;13.90;99.90;;;;;;5073147;28;20052;-63
2021/01/31 15:51:40;;;;;;;32.30;20.95;;;13.80;99.90;;;;;;5067024;28;20052;-62
2021/01/31 15:54:08;;;;;;;23.02;14.23;;;13.80;99.90;;;;;;5055967;28;20079;-64
2021/01/31 15:56:36;;;;;;;15.98;12.25;;;13.80;99.90;;;;;;5056461;28;20055;-64
2021/01/31 15:59:04;;;;;;;17.13;10.00;;;13.70;99.90;;;;;;5053842;28;20147;-61
2021/01/31 16:01:37;;;;;;;14.50;6.88;;;13.60;99.90;;;;;;5067803;28;20057;-64
2021/01/31 16:04:05;;;;;;;10.80;5.40;;;13.50;99.90;;;;;;5073183;28;20052;-64
2021/01/31 16:06:36;;;;;;;12.68;5.65;;;13.50;99.90;;;;;;5066892;28;20054;-61
2021/01/31 16:09:05;;;;;;;11.48;6.45;;;13.40;99.90;;;;;;5073745;28;20076;-63
2021/01/31 16:11:38;;;;;;;15.97;6.67;;;13.40;99.90;;;;;;5073509;28;20428;-61
2021/01/31 16:14:06;;;;;;;12.30;6.88;;;13.40;99.90;;;;;;5059785;28;20568;-60
2021/01/31 16:16:46;;;;;;;14.07;8.48;;;13.30;99.90;;;;;;5061999;28;20513;-61
2021/01/31 16:19:16;;;;;;;15.43;9.55;;;13.30;99.90;;;;;;5050907;28;20045;-58
2021/01/31 16:21:46;;;;;;;49.45;27.83;;;13.30;99.90;;;;;;5050063;28;20422;-57
2021/01/31 16:24:23;;;;;;;34.22;16.20;;;13.30;99.90;;;;;;5050781;28;20060;-60
2021/01/31 16:26:53;;;;;;;26.35;14.90;;;13.30;99.90;;;;;;5050206;28;20132;-58
2021/01/31 16:29:28;;;;;;;29.55;17.08;;;13.30;99.90;;;;;;5048330;28;20463;-61
2021/01/31 16:31:55;;;;;;;34.67;21.38;;;13.30;99.90;;;;;;5061617;28;20256;-59
2021/01/31 16:34:23;;;;;;;36.50;21.70;;;13.30;99.90;;;;;;5049550;28;20045;-60
2021/01/31 16:36:51;;;;;;;39.28;21.92;;;13.30;99.90;;;;;;5059192;28;20059;-63
2021/01/31 16:39:21;;;;;;;31.02;19.10;;;13.30;99.90;;;;;;5048866;28;20057;-62
2021/01/31 16:41:48;;;;;;;38.92;22.55;;;13.30;99.90;;;;;;5051730;28;20059;-60
2021/01/31 16:44:17;;;;;;;21.52;12.00;;;13.30;99.90;;;;;;5058204;28;20136;-61
2021/01/31 16:46:45;;;;;;;32.08;18.02;;;13.20;99.90;;;;;;5066810;28;20052;-61
2021/01/31 16:49:12;;;;;;;31.77;16.88;;;13.20;99.90;;;;;;5067567;28;20130;-61
2021/01/31 16:51:40;;;;;;;43.03;22.17;;;13.20;99.90;;;;;;5057887;28;20036;-61
2021/01/31 16:54:08;;;;;;;22.02;14.25;;;13.20;99.90;;;;;;5052139;28;20057;-61
2021/01/31 16:56:36;;;;;;;19.63;10.73;;;13.20;99.90;;;;;;5057141;28;20044;-61
2021/01/31 16:59:07;;;;;;;21.10;10.65;;;13.20;99.90;;;;;;5068906;28;20123;-62
2021/01/31 17:01:36;;;;;;;19.20;12.43;;;13.20;99.90;;;;;;5050646;28;20053;-61
2021/01/31 17:04:04;;;;;;;17.77;10.75;;;13.20;99.90;;;;;;5049156;28;20131;-59
2021/01/31 17:06:35;;;;;;;22.13;11.20;;;13.10;99.90;;;;;;5047855;28;20056;-61
2021/01/31 17:09:05;;;;;;;13.95;8.27;;;13.10;99.90;;;;;;5050290;28;20107;-61
2021/01/31 17:11:37;;;;;;;21.15;13.55;;;13.10;99.90;;;;;;5049137;28;20068;-62
2021/01/31 17:14:07;;;;;;;16.30;9.38;;;13.10;99.90;;;;;;5048962;28;20056;-61
2021/01/31 17:16:35;;;;;;;20.17;11.32;;;13.00;99.90;;;;;;5049102;28;20056;-62
2021/01/31 17:19:12;;;;;;;19.02;9.60;;;13.00;99.90;;;;;;5064111;28;20501;-60
2021/01/31 17:21:43;;;;;;;16.83;9.05;;;13.00;99.90;;;;;;5068758;28;20135;-58
2021/01/31 17:24:13;;;;;;;16.27;8.00;;;13.00;99.90;;;;;;5069952;28;20044;-62
2021/01/31 17:26:49;;;;;;;22.48;10.05;;;13.00;99.90;;;;;;5069946;28;20079;-60
2021/01/31 17:29:26;;;;;;;20.45;8.90;;;12.90;99.90;;;;;;5053095;28;20048;-56
2021/01/31 17:32:00;;;;;;;18.58;8.38;;;12.90;99.90;;;;;;5052048;28;20083;-61
2021/01/31 17:34:30;;;;;;;14.75;5.80;;;12.90;99.90;;;;;;5059403;28;20044;-62
2021/01/31 17:37:00;;;;;;;10.23;5.55;;;12.80;99.90;;;;;;5058354;28;20048;-61
2021/01/31 17:39:31;;;;;;;44.53;23.30;;;12.70;99.90;;;;;;5051432;28;20067;-62
2021/01/31 17:42:04;;;;;;;32.25;19.58;;;12.70;99.90;;;;;;5048998;28;20048;-62
2021/01/31 17:44:34;;;;;;;27.55;14.60;;;12.60;99.90;;;;;;5051516;28;20127;-60
2021/01/31 17:47:03;;;;;;;21.45;11.68;;;12.60;99.90;;;;;;5049689;28;20048;-61
2021/01/31 17:49:34;;;;;;;14.68;6.90;;;12.60;99.90;;;;;;5069780;28;20057;-60
2021/01/31 17:52:04;;;;;;;14.45;6.22;;;12.60;99.90;;;;;;5062629;28;20045;-62
2021/01/31 17:54:31;;;;;;;8.68;4.50;;;12.60;99.90;;;;;;5049690;28;20053;-62
2021/01/31 17:56:59;;;;;;;15.30;5.70;;;12.60;99.90;;;;;;5032192;28;20102;-62
2021/01/31 17:59:29;;;;;;;15.93;8.82;;;12.60;99.90;;;;;;5049270;28;20053;-62
2021/01/31 18:01:57;;;;;;;23.40;8.50;;;12.60;99.90;;;;;;5048743;28;20060;-62
2021/01/31 18:04:28;;;;;;;18.40;7.40;;;12.60;99.90;;;;;;5048715;28;20105;-63
2021/01/31 18:07:02;;;;;;;19.30;8.90;;;12.70;99.90;;;;;;5032649;28;20052;-62
2021/01/31 18:09:30;;;;;;;17.73;8.57;;;12.70;99.90;;;;;;5048610;28;20073;-62
2021/01/31 18:11:59;;;;;;;13.23;9.43;;;12.80;99.90;;;;;;5048810;28;20049;-63
2021/01/31 18:14:26;;;;;;;23.30;9.00;;;12.80;99.90;;;;;;5048746;28;20044;-62
2021/01/31 18:16:56;;;;;;;38.92;18.05;;;12.80;99.90;;;;;;5049474;28;20048;-62
2021/01/31 18:19:23;;;;;;;48.65;21.25;;;12.80;99.90;;;;;;5066447;28;20052;-62
2021/01/31 18:21:52;;;;;;;47.70;19.60;;;12.80;99.90;;;;;;5069507;28;20098;-62
2021/01/31 18:24:25;;;;;;;44.75;23.27;;;12.70;99.90;;;;;;5068196;28;20052;-63
2021/01/31 18:26:57;;;;;;;31.38;16.85;;;12.70;99.90;;;;;;5052312;28;20063;-62
2021/01/31 18:29:28;;;;;;;36.38;17.02;;;12.80;99.90;;;;;;5068600;28;20117;-62
2021/01/31 18:31:57;;;;;;;74.00;34.55;;;12.80;99.90;;;;;;5052037;28;20524;-63
2021/01/31 18:34:25;;;;;;;87.70;49.67;;;12.80;99.90;;;;;;5068372;28;20064;-60
2021/01/31 18:36:58;;;;;;;50.33;27.63;;;12.80;99.90;;;;;;5070358;28;20056;-63
2021/01/31 18:39:27;;;;;;;45.40;26.48;;;12.90;99.90;;;;;;5069378;28;20129;-64
2021/01/31 18:42:05;;;;;;;40.20;23.15;;;12.90;99.90;;;;;;5052906;28;20048;-55
2021/01/31 18:44:34;;;;;;;28.85;14.38;;;12.80;99.90;;;;;;5070094;28;20048;-63
2021/01/31 18:47:04;;;;;;;23.75;13.00;;;12.80;99.90;;;;;;5070347;28;20056;-64
2021/01/31 18:49:32;;;;;;;20.35;12.32;;;12.80;99.90;;;;;;5070324;28;20048;-64
2021/01/31 18:51:59;;;;;;;19.55;9.68;;;12.70;99.90;;;;;;5072111;28;20037;-59
2021/01/31 18:54:28;;;;;;;20.52;9.18;;;12.70;99.90;;;;;;5070726;28;20056;-64